sensor_id;sensor_type;location;lat;lon;timestamp;P1;durP1;ratioP1;P2;durP2;ratioP2
75649;SDS011;64245;51.282;22.494;2022-12-07T00:03:34;43.05;;;14.30;;
75649;SDS011;64245;51.282;22.494;2022-12-07T00:06:00;40.50;;;15.55;;
75649;SDS011;64245;51.282;22.494;2022-12-07T00:08:28;36.40;;;13.77;;
75649;SDS011;64245;51.282;22.494;2022-12-07T00:10:54;34.70;;;12.05;;
75649;SDS011;64245;51.282;22.494;2022-12-07T00:13:20;50.88;;;18.55;;
75649;SDS011;64245;51.282;22.494;2022-12-07T00:15:46;37.88;;;12.27;;
75649;SDS011;64245;51.282;22.494;2022-12-07T00:18:11;31.45;;;13.48;;
75649;SDS011;64245;51.282;22.494;2022-12-07T00:20:37;34.22;;;12.00;;
75649;SDS011;64245;51.282;22.494;2022-12-07T00:23:03;40.15;;;14.23;;
75649;SDS011;64245;51.282;22.494;2022-12-07T00:25:29;52.38;;;18.65;;
75649;SDS011;64245;51.282;22.494;2022-12-07T00:27:55;35.08;;;13.57;;
75649;SDS011;64245;51.282;22.494;2022-12-07T00:30:22;38.55;;;13.73;;
75649;SDS011;64245;51.282;22.494;2022-12-07T00:32:48;37.95;;;13.27;;
75649;SDS011;64245;51.282;22.494;2022-12-07T00:35:14;43.97;;;14.88;;
75649;SDS011;64245;51.282;22.494;2022-12-07T00:37:40;36.35;;;13.43;;
75649;SDS011;64245;51.282;22.494;2022-12-07T00:40:06;38.00;;;14.90;;
75649;SDS011;64245;51.282;22.494;2022-12-07T00:42:32;32.08;;;13.52;;
75649;SDS011;64245;51.282;22.494;2022-12-07T00:44:58;36.03;;;13.57;;
75649;SDS011;64245;51.282;22.494;2022-12-07T00:47:24;37.33;;;13.40;;
75649;SDS011;64245;51.282;22.494;2022-12-07T00:49:49;33.65;;;13.23;;
75649;SDS011;64245;51.282;22.494;2022-12-07T00:52:15;31.88;;;12.20;;
75649;SDS011;64245;51.282;22.494;2022-12-07T00:54:40;29.15;;;11.18;;
75649;SDS011;64245;51.282;22.494;2022-12-07T00:57:06;32.65;;;13.35;;
75649;SDS011;64245;51.282;22.494;2022-12-07T00:59:33;31.02;;;13.25;;
75649;SDS011;64245;51.282;22.494;2022-12-07T01:01:59;32.17;;;12.45;;
75649;SDS011;64245;51.282;22.494;2022-12-07T01:04:24;29.75;;;12.40;;
75649;SDS011;64245;51.282;22.494;2022-12-07T01:06:50;26.52;;;10.70;;
75649;SDS011;64245;51.282;22.494;2022-12-07T01:09:15;28.45;;;11.80;;
75649;SDS011;64245;51.282;22.494;2022-12-07T01:11:41;28.10;;;12.02;;
75649;SDS011;64245;51.282;22.494;2022-12-07T01:14:08;31.77;;;11.80;;
75649;SDS011;64245;51.282;22.494;2022-12-07T01:16:34;27.60;;;11.85;;
75649;SDS011;64245;51.282;22.494;2022-12-07T01:19:00;29.77;;;14.88;;
75649;SDS011;64245;51.282;22.494;2022-12-07T01:21:28;41.33;;;16.42;;
75649;SDS011;64245;51.282;22.494;2022-12-07T01:23:57;34.83;;;14.20;;
75649;SDS011;64245;51.282;22.494;2022-12-07T01:26:23;30.23;;;13.52;;
75649;SDS011;64245;51.282;22.494;2022-12-07T01:28:49;30.25;;;13.27;;
75649;SDS011;64245;51.282;22.494;2022-12-07T01:31:16;42.58;;;18.25;;
75649;SDS011;64245;51.282;22.494;2022-12-07T01:33:45;34.00;;;15.98;;
75649;SDS011;64245;51.282;22.494;2022-12-07T01:36:17;36.00;;;15.77;;
75649;SDS011;64245;51.282;22.494;2022-12-07T01:38:44;29.38;;;13.27;;
75649;SDS011;64245;51.282;22.494;2022-12-07T01:41:12;33.58;;;14.73;;
75649;SDS011;64245;51.282;22.494;2022-12-07T01:44:07;32.42;;;13.68;;
75649;SDS011;64245;51.282;22.494;2022-12-07T01:46:32;29.05;;;13.38;;
75649;SDS011;64245;51.282;22.494;2022-12-07T01:48:58;25.50;;;12.23;;
75649;SDS011;64245;51.282;22.494;2022-12-07T01:51:25;28.45;;;12.77;;
75649;SDS011;64245;51.282;22.494;2022-12-07T01:53:51;25.60;;;11.73;;
75649;SDS011;64245;51.282;22.494;2022-12-07T01:56:19;28.27;;;12.80;;
75649;SDS011;64245;51.282;22.494;2022-12-07T01:58:47;34.42;;;14.85;;
75649;SDS011;64245;51.282;22.494;2022-12-07T02:01:14;30.52;;;13.30;;
75649;SDS011;64245;51.282;22.494;2022-12-07T02:03:40;31.75;;;13.90;;
75649;SDS011;64245;51.282;22.494;2022-12-07T02:06:08;31.42;;;14.38;;
75649;SDS011;64245;51.282;22.494;2022-12-07T02:08:35;20.98;;;9.55;;
75649;SDS011;64245;51.282;22.494;2022-12-07T02:11:02;28.05;;;12.45;;
75649;SDS011;64245;51.282;22.494;2022-12-07T02:13:32;24.63;;;11.38;;
75649;SDS011;64245;51.282;22.494;2022-12-07T02:16:13;23.45;;;10.18;;
75649;SDS011;64245;51.282;22.494;2022-12-07T02:19:14;18.00;;;9.35;;
75649;SDS011;64245;51.282;22.494;2022-12-07T02:27:25;8.75;;;4.25;;
75649;SDS011;64245;51.282;22.494;2022-12-07T02:32:38;12.40;;;6.38;;
75649;SDS011;64245;51.282;22.494;2022-12-07T02:37:47;10.48;;;5.60;;
75649;SDS011;64245;51.282;22.494;2022-12-07T02:40:29;13.45;;;6.65;;
75649;SDS011;64245;51.282;22.494;2022-12-07T02:45:41;13.73;;;6.35;;
75649;SDS011;64245;51.282;22.494;2022-12-07T02:48:08;10.23;;;5.65;;
75649;SDS011;64245;51.282;22.494;2022-12-07T02:50:37;11.95;;;6.07;;
75649;SDS011;64245;51.282;22.494;2022-12-07T02:53:02;5.65;;;3.55;;
75649;SDS011;64245;51.282;22.494;2022-12-07T02:55:29;14.82;;;6.45;;
75649;SDS011;64245;51.282;22.494;2022-12-07T02:58:13;10.50;;;5.88;;
75649;SDS011;64245;51.282;22.494;2022-12-07T03:01:28;9.68;;;4.88;;
75649;SDS011;64245;51.282;22.494;2022-12-07T03:04:01;8.73;;;4.72;;
75649;SDS011;64245;51.282;22.494;2022-12-07T03:06:51;7.80;;;3.90;;
75649;SDS011;64245;51.282;22.494;2022-12-07T03:09:36;6.60;;;3.58;;
75649;SDS011;64245;51.282;22.494;2022-12-07T03:12:10;5.20;;;2.78;;
75649;SDS011;64245;51.282;22.494;2022-12-07T03:14:45;6.40;;;3.83;;
75649;SDS011;64245;51.282;22.494;2022-12-07T03:17:19;5.50;;;3.58;;
75649;SDS011;64245;51.282;22.494;2022-12-07T03:19:50;6.15;;;2.92;;
75649;SDS011;64245;51.282;22.494;2022-12-07T03:22:21;3.83;;;2.55;;
75649;SDS011;64245;51.282;22.494;2022-12-07T03:24:52;5.15;;;3.15;;
75649;SDS011;64245;51.282;22.494;2022-12-07T03:27:25;3.35;;;1.75;;
75649;SDS011;64245;51.282;22.494;2022-12-07T03:30:02;1.75;;;1.35;;
75649;SDS011;64245;51.282;22.494;2022-12-07T03:32:36;3.95;;;2.20;;
75649;SDS011;64245;51.282;22.494;2022-12-07T03:35:09;4.05;;;2.08;;
75649;SDS011;64245;51.282;22.494;2022-12-07T03:37:50;4.70;;;2.72;;
75649;SDS011;64245;51.282;22.494;2022-12-07T03:40:32;5.68;;;2.95;;
75649;SDS011;64245;51.282;22.494;2022-12-07T03:43:02;3.08;;;1.95;;
75649;SDS011;64245;51.282;22.494;2022-12-07T03:45:43;3.55;;;2.08;;
75649;SDS011;64245;51.282;22.494;2022-12-07T03:48:25;5.05;;;3.00;;
75649;SDS011;64245;51.282;22.494;2022-12-07T03:51:13;6.40;;;3.35;;
75649;SDS011;64245;51.282;22.494;2022-12-07T03:53:50;4.53;;;2.63;;
75649;SDS011;64245;51.282;22.494;2022-12-07T03:56:20;6.10;;;2.75;;
75649;SDS011;64245;51.282;22.494;2022-12-07T03:58:46;4.53;;;2.90;;
75649;SDS011;64245;51.282;22.494;2022-12-07T04:01:13;4.65;;;2.70;;
75649;SDS011;64245;51.282;22.494;2022-12-07T04:03:39;8.15;;;3.35;;
75649;SDS011;64245;51.282;22.494;2022-12-07T04:06:05;6.25;;;3.13;;
75649;SDS011;64245;51.282;22.494;2022-12-07T04:08:30;5.65;;;2.67;;
75649;SDS011;64245;51.282;22.494;2022-12-07T04:10:56;4.88;;;2.72;;
75649;SDS011;64245;51.282;22.494;2022-12-07T04:13:22;4.68;;;1.83;;
75649;SDS011;64245;51.282;22.494;2022-12-07T04:15:48;6.65;;;3.13;;
75649;SDS011;64245;51.282;22.494;2022-12-07T04:18:13;7.55;;;4.00;;
75649;SDS011;64245;51.282;22.494;2022-12-07T04:20:39;7.63;;;3.33;;
75649;SDS011;64245;51.282;22.494;2022-12-07T04:23:04;6.15;;;3.13;;
75649;SDS011;64245;51.282;22.494;2022-12-07T04:25:30;6.53;;;3.83;;
75649;SDS011;64245;51.282;22.494;2022-12-07T04:27:56;7.35;;;3.42;;
75649;SDS011;64245;51.282;22.494;2022-12-07T04:30:21;4.85;;;2.83;;
75649;SDS011;64245;51.282;22.494;2022-12-07T04:32:47;7.07;;;3.97;;
75649;SDS011;64245;51.282;22.494;2022-12-07T04:35:13;5.30;;;2.17;;
75649;SDS011;64245;51.282;22.494;2022-12-07T04:37:38;6.53;;;3.40;;
75649;SDS011;64245;51.282;22.494;2022-12-07T04:40:06;5.35;;;2.65;;
75649;SDS011;64245;51.282;22.494;2022-12-07T04:42:36;5.45;;;3.17;;
75649;SDS011;64245;51.282;22.494;2022-12-07T04:45:03;5.65;;;3.42;;
75649;SDS011;64245;51.282;22.494;2022-12-07T04:47:28;6.72;;;3.42;;
75649;SDS011;64245;51.282;22.494;2022-12-07T04:49:54;5.57;;;3.15;;
75649;SDS011;64245;51.282;22.494;2022-12-07T04:52:20;7.88;;;3.97;;
75649;SDS011;64245;51.282;22.494;2022-12-07T04:54:46;6.07;;;3.20;;
75649;SDS011;64245;51.282;22.494;2022-12-07T04:57:11;6.10;;;3.30;;
75649;SDS011;64245;51.282;22.494;2022-12-07T04:59:37;6.90;;;3.90;;
75649;SDS011;64245;51.282;22.494;2022-12-07T05:02:02;7.35;;;4.03;;
75649;SDS011;64245;51.282;22.494;2022-12-07T05:04:28;7.78;;;4.20;;
75649;SDS011;64245;51.282;22.494;2022-12-07T05:06:54;7.70;;;3.42;;
75649;SDS011;64245;51.282;22.494;2022-12-07T05:09:19;7.10;;;4.22;;
75649;SDS011;64245;51.282;22.494;2022-12-07T05:11:45;5.40;;;3.25;;
75649;SDS011;64245;51.282;22.494;2022-12-07T05:16:46;8.02;;;3.05;;
75649;SDS011;64245;51.282;22.494;2022-12-07T05:19:15;7.75;;;4.38;;
75649;SDS011;64245;51.282;22.494;2022-12-07T05:21:41;8.32;;;4.00;;
75649;SDS011;64245;51.282;22.494;2022-12-07T05:24:07;6.25;;;3.80;;
75649;SDS011;64245;51.282;22.494;2022-12-07T05:26:34;6.65;;;3.63;;
75649;SDS011;64245;51.282;22.494;2022-12-07T05:29:01;4.85;;;3.13;;
75649;SDS011;64245;51.282;22.494;2022-12-07T05:31:28;4.32;;;2.17;;
75649;SDS011;64245;51.282;22.494;2022-12-07T05:33:54;4.57;;;2.65;;
75649;SDS011;64245;51.282;22.494;2022-12-07T05:36:19;6.38;;;3.45;;
75649;SDS011;64245;51.282;22.494;2022-12-07T05:38:45;2.97;;;2.10;;
75649;SDS011;64245;51.282;22.494;2022-12-07T05:41:15;6.82;;;3.50;;
75649;SDS011;64245;51.282;22.494;2022-12-07T05:44:00;5.38;;;3.17;;
75649;SDS011;64245;51.282;22.494;2022-12-07T05:46:26;2.22;;;1.50;;
75649;SDS011;64245;51.282;22.494;2022-12-07T05:48:52;6.75;;;3.22;;
75649;SDS011;64245;51.282;22.494;2022-12-07T05:51:17;9.10;;;3.88;;
75649;SDS011;64245;51.282;22.494;2022-12-07T05:53:44;6.00;;;1.67;;
75649;SDS011;64245;51.282;22.494;2022-12-07T05:56:10;8.10;;;4.32;;
75649;SDS011;64245;51.282;22.494;2022-12-07T05:58:36;9.50;;;4.30;;
75649;SDS011;64245;51.282;22.494;2022-12-07T06:01:19;6.63;;;3.58;;
75649;SDS011;64245;51.282;22.494;2022-12-07T06:03:45;9.07;;;4.70;;
75649;SDS011;64245;51.282;22.494;2022-12-07T06:06:11;5.53;;;3.95;;
75649;SDS011;64245;51.282;22.494;2022-12-07T06:08:37;7.82;;;4.28;;
75649;SDS011;64245;51.282;22.494;2022-12-07T06:11:02;10.27;;;4.82;;
75649;SDS011;64245;51.282;22.494;2022-12-07T06:13:47;5.90;;;3.05;;
75649;SDS011;64245;51.282;22.494;2022-12-07T06:16:12;7.55;;;4.50;;
75649;SDS011;64245;51.282;22.494;2022-12-07T06:18:38;4.35;;;2.58;;
75649;SDS011;64245;51.282;22.494;2022-12-07T06:21:04;6.80;;;3.92;;
75649;SDS011;64245;51.282;22.494;2022-12-07T06:23:30;7.38;;;3.78;;
75649;SDS011;64245;51.282;22.494;2022-12-07T06:25:55;6.05;;;4.22;;
75649;SDS011;64245;51.282;22.494;2022-12-07T06:28:21;10.30;;;5.25;;
75649;SDS011;64245;51.282;22.494;2022-12-07T06:30:46;8.50;;;4.32;;
75649;SDS011;64245;51.282;22.494;2022-12-07T06:33:12;7.25;;;3.80;;
75649;SDS011;64245;51.282;22.494;2022-12-07T06:35:38;8.65;;;4.15;;
75649;SDS011;64245;51.282;22.494;2022-12-07T06:38:03;1.98;;;1.25;;
75649;SDS011;64245;51.282;22.494;2022-12-07T06:40:29;5.70;;;3.13;;
75649;SDS011;64245;51.282;22.494;2022-12-07T06:42:55;7.50;;;4.30;;
75649;SDS011;64245;51.282;22.494;2022-12-07T06:45:20;7.60;;;4.30;;
75649;SDS011;64245;51.282;22.494;2022-12-07T06:47:46;7.03;;;4.32;;
75649;SDS011;64245;51.282;22.494;2022-12-07T06:50:11;10.05;;;4.72;;
75649;SDS011;64245;51.282;22.494;2022-12-07T06:52:37;9.18;;;4.60;;
75649;SDS011;64245;51.282;22.494;2022-12-07T06:55:03;8.25;;;4.07;;
75649;SDS011;64245;51.282;22.494;2022-12-07T06:57:29;7.28;;;4.15;;
75649;SDS011;64245;51.282;22.494;2022-12-07T06:59:54;4.82;;;3.28;;
75649;SDS011;64245;51.282;22.494;2022-12-07T07:02:20;7.68;;;3.63;;
75649;SDS011;64245;51.282;22.494;2022-12-07T07:04:46;6.00;;;3.15;;
75649;SDS011;64245;51.282;22.494;2022-12-07T07:07:11;5.20;;;3.55;;
75649;SDS011;64245;51.282;22.494;2022-12-07T07:09:37;7.25;;;3.65;;
75649;SDS011;64245;51.282;22.494;2022-12-07T07:12:03;7.53;;;4.72;;
75649;SDS011;64245;51.282;22.494;2022-12-07T07:14:28;7.43;;;4.05;;
75649;SDS011;64245;51.282;22.494;2022-12-07T07:16:54;6.45;;;3.80;;
75649;SDS011;64245;51.282;22.494;2022-12-07T07:19:20;9.27;;;4.00;;
75649;SDS011;64245;51.282;22.494;2022-12-07T07:21:46;9.68;;;4.32;;
75649;SDS011;64245;51.282;22.494;2022-12-07T07:24:11;5.72;;;3.63;;
75649;SDS011;64245;51.282;22.494;2022-12-07T07:26:37;8.18;;;4.35;;
75649;SDS011;64245;51.282;22.494;2022-12-07T07:29:02;5.85;;;2.83;;
75649;SDS011;64245;51.282;22.494;2022-12-07T07:31:28;9.10;;;3.83;;
75649;SDS011;64245;51.282;22.494;2022-12-07T07:33:54;9.38;;;4.13;;
75649;SDS011;64245;51.282;22.494;2022-12-07T07:36:19;6.78;;;3.33;;
75649;SDS011;64245;51.282;22.494;2022-12-07T07:38:45;8.23;;;3.88;;
75649;SDS011;64245;51.282;22.494;2022-12-07T07:41:11;9.13;;;4.45;;
75649;SDS011;64245;51.282;22.494;2022-12-07T07:43:36;10.15;;;4.68;;
75649;SDS011;64245;51.282;22.494;2022-12-07T07:46:02;6.60;;;4.38;;
75649;SDS011;64245;51.282;22.494;2022-12-07T07:48:27;11.38;;;4.40;;
75649;SDS011;64245;51.282;22.494;2022-12-07T07:50:53;12.35;;;5.15;;
75649;SDS011;64245;51.282;22.494;2022-12-07T07:53:19;11.63;;;5.20;;
75649;SDS011;64245;51.282;22.494;2022-12-07T07:55:51;10.13;;;4.72;;
75649;SDS011;64245;51.282;22.494;2022-12-07T07:58:18;8.82;;;4.95;;
75649;SDS011;64245;51.282;22.494;2022-12-07T08:00:44;6.72;;;3.45;;
75649;SDS011;64245;51.282;22.494;2022-12-07T08:03:10;8.68;;;4.03;;
75649;SDS011;64245;51.282;22.494;2022-12-07T08:05:36;9.27;;;3.83;;
75649;SDS011;64245;51.282;22.494;2022-12-07T08:08:03;8.73;;;4.07;;
75649;SDS011;64245;51.282;22.494;2022-12-07T08:10:29;8.65;;;4.35;;
75649;SDS011;64245;51.282;22.494;2022-12-07T08:12:57;3.25;;;1.85;;
75649;SDS011;64245;51.282;22.494;2022-12-07T08:15:37;8.90;;;5.05;;
75649;SDS011;64245;51.282;22.494;2022-12-07T08:18:03;6.13;;;3.15;;
75649;SDS011;64245;51.282;22.494;2022-12-07T08:20:30;7.05;;;3.55;;
75649;SDS011;64245;51.282;22.494;2022-12-07T08:22:56;10.15;;;5.10;;
75649;SDS011;64245;51.282;22.494;2022-12-07T08:25:22;9.35;;;4.80;;
75649;SDS011;64245;51.282;22.494;2022-12-07T08:27:48;6.72;;;3.85;;
75649;SDS011;64245;51.282;22.494;2022-12-07T08:30:14;7.72;;;5.00;;
75649;SDS011;64245;51.282;22.494;2022-12-07T08:32:40;8.48;;;5.03;;
75649;SDS011;64245;51.282;22.494;2022-12-07T08:35:06;7.75;;;4.35;;
75649;SDS011;64245;51.282;22.494;2022-12-07T08:37:32;9.43;;;2.83;;
75649;SDS011;64245;51.282;22.494;2022-12-07T08:39:58;6.20;;;4.30;;
75649;SDS011;64245;51.282;22.494;2022-12-07T08:42:24;7.63;;;5.10;;
75649;SDS011;64245;51.282;22.494;2022-12-07T08:44:57;6.60;;;4.05;;
75649;SDS011;64245;51.282;22.494;2022-12-07T08:47:23;12.43;;;5.60;;
75649;SDS011;64245;51.282;22.494;2022-12-07T08:49:50;8.25;;;4.68;;
75649;SDS011;64245;51.282;22.494;2022-12-07T08:52:18;12.95;;;6.15;;
75649;SDS011;64245;51.282;22.494;2022-12-07T08:54:44;10.02;;;5.72;;
75649;SDS011;64245;51.282;22.494;2022-12-07T08:57:10;15.20;;;6.68;;
75649;SDS011;64245;51.282;22.494;2022-12-07T08:59:36;12.68;;;5.90;;
75649;SDS011;64245;51.282;22.494;2022-12-07T09:02:03;16.17;;;7.22;;
75649;SDS011;64245;51.282;22.494;2022-12-07T09:04:30;14.02;;;6.95;;
75649;SDS011;64245;51.282;22.494;2022-12-07T09:06:55;14.63;;;6.45;;
75649;SDS011;64245;51.282;22.494;2022-12-07T09:09:21;11.23;;;4.55;;
75649;SDS011;64245;51.282;22.494;2022-12-07T09:11:47;12.30;;;5.55;;
75649;SDS011;64245;51.282;22.494;2022-12-07T09:14:13;14.65;;;5.60;;
75649;SDS011;64245;51.282;22.494;2022-12-07T09:16:39;14.43;;;6.72;;
75649;SDS011;64245;51.282;22.494;2022-12-07T09:19:05;11.10;;;4.43;;
75649;SDS011;64245;51.282;22.494;2022-12-07T09:21:30;14.40;;;6.30;;
75649;SDS011;64245;51.282;22.494;2022-12-07T09:23:56;13.52;;;6.63;;
75649;SDS011;64245;51.282;22.494;2022-12-07T09:26:22;12.07;;;6.35;;
75649;SDS011;64245;51.282;22.494;2022-12-07T09:28:48;13.82;;;6.25;;
75649;SDS011;64245;51.282;22.494;2022-12-07T09:31:13;13.02;;;5.38;;
75649;SDS011;64245;51.282;22.494;2022-12-07T09:33:39;10.27;;;5.28;;
75649;SDS011;64245;51.282;22.494;2022-12-07T09:36:06;8.98;;;5.35;;
75649;SDS011;64245;51.282;22.494;2022-12-07T09:38:32;11.45;;;5.50;;
75649;SDS011;64245;51.282;22.494;2022-12-07T09:40:58;10.98;;;4.93;;
75649;SDS011;64245;51.282;22.494;2022-12-07T09:43:30;11.52;;;4.85;;
75649;SDS011;64245;51.282;22.494;2022-12-07T09:45:56;10.82;;;5.57;;
75649;SDS011;64245;51.282;22.494;2022-12-07T09:48:23;8.45;;;4.32;;
75649;SDS011;64245;51.282;22.494;2022-12-07T09:50:57;9.57;;;4.85;;
75649;SDS011;64245;51.282;22.494;2022-12-07T09:53:28;4.20;;;2.80;;
75649;SDS011;64245;51.282;22.494;2022-12-07T09:55:58;6.00;;;3.65;;
75649;SDS011;64245;51.282;22.494;2022-12-07T09:58:25;9.00;;;4.97;;
75649;SDS011;64245;51.282;22.494;2022-12-07T10:00:53;7.75;;;4.22;;
75649;SDS011;64245;51.282;22.494;2022-12-07T10:03:22;9.05;;;4.93;;
75649;SDS011;64245;51.282;22.494;2022-12-07T10:05:49;9.95;;;4.60;;
75649;SDS011;64245;51.282;22.494;2022-12-07T10:08:16;5.78;;;2.38;;
75649;SDS011;64245;51.282;22.494;2022-12-07T10:10:42;8.38;;;4.90;;
75649;SDS011;64245;51.282;22.494;2022-12-07T10:13:11;10.35;;;5.20;;
75649;SDS011;64245;51.282;22.494;2022-12-07T10:15:42;11.02;;;5.40;;
75649;SDS011;64245;51.282;22.494;2022-12-07T10:23:35;8.95;;;4.88;;
75649;SDS011;64245;51.282;22.494;2022-12-07T10:31:59;3.95;;;2.90;;
75649;SDS011;64245;51.282;22.494;2022-12-07T10:37:07;9.52;;;4.93;;
75649;SDS011;64245;51.282;22.494;2022-12-07T10:42:24;7.03;;;3.30;;
75649;SDS011;64245;51.282;22.494;2022-12-07T10:47:44;8.50;;;4.90;;
75649;SDS011;64245;51.282;22.494;2022-12-07T10:50:18;6.28;;;3.67;;
75649;SDS011;64245;51.282;22.494;2022-12-07T10:53:13;7.57;;;4.28;;
75649;SDS011;64245;51.282;22.494;2022-12-07T10:56:17;11.75;;;5.28;;
75649;SDS011;64245;51.282;22.494;2022-12-07T11:09:43;11.23;;;5.70;;
75649;SDS011;64245;51.282;22.494;2022-12-07T11:12:27;11.32;;;6.13;;
75649;SDS011;64245;51.282;22.494;2022-12-07T11:15:18;10.00;;;4.80;;
75649;SDS011;64245;51.282;22.494;2022-12-07T11:18:06;6.50;;;4.18;;
75649;SDS011;64245;51.282;22.494;2022-12-07T11:21:06;7.07;;;4.70;;
75649;SDS011;64245;51.282;22.494;2022-12-07T11:26:33;11.15;;;5.07;;
75649;SDS011;64245;51.282;22.494;2022-12-07T11:29:10;11.10;;;4.82;;
75649;SDS011;64245;51.282;22.494;2022-12-07T11:32:11;7.32;;;3.17;;
75649;SDS011;64245;51.282;22.494;2022-12-07T11:37:25;12.60;;;6.45;;
75649;SDS011;64245;51.282;22.494;2022-12-07T11:39:59;6.88;;;3.42;;
75649;SDS011;64245;51.282;22.494;2022-12-07T11:42:36;12.25;;;6.05;;
75649;SDS011;64245;51.282;22.494;2022-12-07T11:45:23;11.30;;;5.43;;
75649;SDS011;64245;51.282;22.494;2022-12-07T11:47:54;11.95;;;5.40;;
75649;SDS011;64245;51.282;22.494;2022-12-07T11:50:32;13.45;;;5.65;;
75649;SDS011;64245;51.282;22.494;2022-12-07T11:53:14;10.18;;;4.85;;
75649;SDS011;64245;51.282;22.494;2022-12-07T11:55:52;11.50;;;5.90;;
75649;SDS011;64245;51.282;22.494;2022-12-07T12:01:08;11.23;;;5.45;;
75649;SDS011;64245;51.282;22.494;2022-12-07T12:03:48;11.57;;;6.20;;
75649;SDS011;64245;51.282;22.494;2022-12-07T12:06:16;11.90;;;4.80;;
75649;SDS011;64245;51.282;22.494;2022-12-07T12:08:43;9.82;;;4.82;;
75649;SDS011;64245;51.282;22.494;2022-12-07T12:25:22;13.05;;;6.35;;
75649;SDS011;64245;51.282;22.494;2022-12-07T12:28:20;14.15;;;7.65;;
75649;SDS011;64245;51.282;22.494;2022-12-07T12:33:37;13.68;;;6.32;;
75649;SDS011;64245;51.282;22.494;2022-12-07T12:46:46;13.25;;;6.78;;
75649;SDS011;64245;51.282;22.494;2022-12-07T12:51:46;14.75;;;6.97;;
75649;SDS011;64245;51.282;22.494;2022-12-07T12:54:15;11.57;;;6.38;;
75649;SDS011;64245;51.282;22.494;2022-12-07T13:02:36;11.55;;;5.90;;
75649;SDS011;64245;51.282;22.494;2022-12-07T13:15:49;11.45;;;3.72;;
75649;SDS011;64245;51.282;22.494;2022-12-07T13:23:39;11.63;;;5.93;;
75649;SDS011;64245;51.282;22.494;2022-12-07T13:26:39;7.82;;;4.45;;
75649;SDS011;64245;51.282;22.494;2022-12-07T13:29:14;9.73;;;4.82;;
75649;SDS011;64245;51.282;22.494;2022-12-07T13:31:48;13.18;;;6.15;;
75649;SDS011;64245;51.282;22.494;2022-12-07T13:37:00;9.65;;;4.15;;
75649;SDS011;64245;51.282;22.494;2022-12-07T13:39:32;7.47;;;4.32;;
75649;SDS011;64245;51.282;22.494;2022-12-07T13:42:19;8.20;;;4.28;;
75649;SDS011;64245;51.282;22.494;2022-12-07T13:44:57;9.05;;;4.80;;
75649;SDS011;64245;51.282;22.494;2022-12-07T13:49:56;3.65;;;2.90;;
75649;SDS011;64245;51.282;22.494;2022-12-07T13:52:26;9.95;;;4.97;;
75649;SDS011;64245;51.282;22.494;2022-12-07T13:54:57;10.27;;;4.80;;
75649;SDS011;64245;51.282;22.494;2022-12-07T13:57:31;8.23;;;3.72;;
75649;SDS011;64245;51.282;22.494;2022-12-07T14:00:02;11.48;;;5.57;;
75649;SDS011;64245;51.282;22.494;2022-12-07T14:02:31;13.13;;;6.00;;
75649;SDS011;64245;51.282;22.494;2022-12-07T14:05:09;14.48;;;6.25;;
75649;SDS011;64245;51.282;22.494;2022-12-07T14:07:59;13.23;;;5.93;;
75649;SDS011;64245;51.282;22.494;2022-12-07T14:16:34;11.50;;;5.78;;
75649;SDS011;64245;51.282;22.494;2022-12-07T14:19:05;18.23;;;6.90;;
75649;SDS011;64245;51.282;22.494;2022-12-07T14:22:05;15.75;;;7.63;;
75649;SDS011;64245;51.282;22.494;2022-12-07T14:27:15;14.20;;;6.65;;
75649;SDS011;64245;51.282;22.494;2022-12-07T14:29:46;9.10;;;4.88;;
75649;SDS011;64245;51.282;22.494;2022-12-07T14:32:20;17.10;;;7.97;;
75649;SDS011;64245;51.282;22.494;2022-12-07T14:35:10;13.27;;;6.40;;
75649;SDS011;64245;51.282;22.494;2022-12-07T14:37:38;15.00;;;7.68;;
75649;SDS011;64245;51.282;22.494;2022-12-07T14:40:06;13.05;;;6.65;;
75649;SDS011;64245;51.282;22.494;2022-12-07T14:42:32;16.98;;;7.25;;
75649;SDS011;64245;51.282;22.494;2022-12-07T14:44:59;8.65;;;5.20;;
75649;SDS011;64245;51.282;22.494;2022-12-07T14:47:25;10.10;;;4.32;;
75649;SDS011;64245;51.282;22.494;2022-12-07T14:49:52;14.43;;;5.72;;
75649;SDS011;64245;51.282;22.494;2022-12-07T14:52:21;15.95;;;7.40;;
75649;SDS011;64245;51.282;22.494;2022-12-07T14:54:50;14.35;;;7.05;;
75649;SDS011;64245;51.282;22.494;2022-12-07T14:57:16;15.77;;;7.78;;
75649;SDS011;64245;51.282;22.494;2022-12-07T14:59:42;15.18;;;7.45;;
75649;SDS011;64245;51.282;22.494;2022-12-07T15:02:09;15.63;;;7.70;;
75649;SDS011;64245;51.282;22.494;2022-12-07T15:04:37;15.73;;;8.57;;
75649;SDS011;64245;51.282;22.494;2022-12-07T15:07:03;13.93;;;7.50;;
75649;SDS011;64245;51.282;22.494;2022-12-07T15:09:30;8.95;;;3.97;;
75649;SDS011;64245;51.282;22.494;2022-12-07T15:11:56;16.88;;;6.60;;
75649;SDS011;64245;51.282;22.494;2022-12-07T15:14:22;19.02;;;8.63;;
75649;SDS011;64245;51.282;22.494;2022-12-07T15:16:47;10.32;;;5.32;;
75649;SDS011;64245;51.282;22.494;2022-12-07T15:19:14;14.75;;;7.32;;
75649;SDS011;64245;51.282;22.494;2022-12-07T15:21:41;19.85;;;10.00;;
75649;SDS011;64245;51.282;22.494;2022-12-07T15:24:08;21.75;;;9.32;;
75649;SDS011;64245;51.282;22.494;2022-12-07T15:26:37;15.70;;;8.00;;
75649;SDS011;64245;51.282;22.494;2022-12-07T15:29:04;17.85;;;8.25;;
75649;SDS011;64245;51.282;22.494;2022-12-07T15:31:30;17.92;;;9.18;;
75649;SDS011;64245;51.282;22.494;2022-12-07T15:33:56;21.30;;;10.88;;
75649;SDS011;64245;51.282;22.494;2022-12-07T15:36:23;19.95;;;7.25;;
75649;SDS011;64245;51.282;22.494;2022-12-07T15:38:51;20.73;;;8.80;;
75649;SDS011;64245;51.282;22.494;2022-12-07T15:41:16;17.52;;;8.52;;
75649;SDS011;64245;51.282;22.494;2022-12-07T15:43:42;18.50;;;8.70;;
75649;SDS011;64245;51.282;22.494;2022-12-07T15:46:30;19.30;;;9.18;;
75649;SDS011;64245;51.282;22.494;2022-12-07T15:48:57;19.90;;;8.70;;
75649;SDS011;64245;51.282;22.494;2022-12-07T15:51:23;10.20;;;6.28;;
75649;SDS011;64245;51.282;22.494;2022-12-07T15:53:49;11.98;;;5.45;;
75649;SDS011;64245;51.282;22.494;2022-12-07T15:56:14;17.63;;;8.52;;
75649;SDS011;64245;51.282;22.494;2022-12-07T15:58:40;16.50;;;7.15;;
75649;SDS011;64245;51.282;22.494;2022-12-07T16:01:09;18.10;;;9.30;;
75649;SDS011;64245;51.282;22.494;2022-12-07T16:03:39;17.92;;;8.48;;
75649;SDS011;64245;51.282;22.494;2022-12-07T16:06:05;20.05;;;8.52;;
75649;SDS011;64245;51.282;22.494;2022-12-07T16:08:31;15.40;;;7.18;;
75649;SDS011;64245;51.282;22.494;2022-12-07T16:10:57;21.23;;;10.05;;
75649;SDS011;64245;51.282;22.494;2022-12-07T16:13:22;17.23;;;7.82;;
75649;SDS011;64245;51.282;22.494;2022-12-07T16:15:48;19.27;;;8.50;;
75649;SDS011;64245;51.282;22.494;2022-12-07T16:18:14;12.35;;;5.95;;
75649;SDS011;64245;51.282;22.494;2022-12-07T16:20:39;22.17;;;8.73;;
75649;SDS011;64245;51.282;22.494;2022-12-07T16:23:06;16.20;;;7.38;;
75649;SDS011;64245;51.282;22.494;2022-12-07T16:25:32;21.27;;;10.65;;
75649;SDS011;64245;51.282;22.494;2022-12-07T16:27:58;22.95;;;9.82;;
75649;SDS011;64245;51.282;22.494;2022-12-07T16:30:24;22.67;;;10.00;;
75649;SDS011;64245;51.282;22.494;2022-12-07T16:32:51;22.48;;;9.73;;
75649;SDS011;64245;51.282;22.494;2022-12-07T16:35:16;8.93;;;6.20;;
75649;SDS011;64245;51.282;22.494;2022-12-07T16:37:42;14.32;;;7.10;;
75649;SDS011;64245;51.282;22.494;2022-12-07T16:40:08;22.02;;;9.52;;
75649;SDS011;64245;51.282;22.494;2022-12-07T16:42:35;22.90;;;10.18;;